sensor_id;sensor_type;location;lat;lon;timestamp;temperature;humidity
60234;DHT22;49514;43.538;-5.708;2023-05-19T00:02:01;15.30;99.90
60234;DHT22;49514;43.538;-5.708;2023-05-19T00:04:31;15.30;99.90
60234;DHT22;49514;43.538;-5.708;2023-05-19T00:06:58;15.20;99.90
60234;DHT22;49514;43.538;-5.708;2023-05-19T00:09:26;15.20;99.90
60234;DHT22;49514;43.538;-5.708;2023-05-19T00:11:53;15.10;99.90
60234;DHT22;49514;43.538;-5.708;2023-05-19T00:14:20;15.10;99.90
60234;DHT22;49514;43.538;-5.708;2023-05-19T00:16:47;15.10;99.90
60234;DHT22;49514;43.538;-5.708;2023-05-19T00:19:14;15.10;99.90
60234;DHT22;49514;43.538;-5.708;2023-05-19T00:21:42;14.80;99.90
60234;DHT22;49514;43.538;-5.708;2023-05-19T00:24:08;15.10;99.90
60234;DHT22;49514;43.538;-5.708;2023-05-19T00:26:35;15.10;99.90
60234;DHT22;49514;43.538;-5.708;2023-05-19T00:29:04;15.00;99.90
60234;DHT22;49514;43.538;-5.708;2023-05-19T00:31:31;14.90;99.90
60234;DHT22;49514;43.538;-5.708;2023-05-19T00:34:00;14.90;99.90
60234;DHT22;49514;43.538;-5.708;2023-05-19T00:36:27;15.00;99.90
60234;DHT22;49514;43.538;-5.708;2023-05-19T00:38:55;14.90;99.90
60234;DHT22;49514;43.538;-5.708;2023-05-19T00:41:22;14.90;99.90
60234;DHT22;49514;43.538;-5.708;2023-05-19T00:43:49;14.90;99.90
60234;DHT22;49514;43.538;-5.708;2023-05-19T00:46:17;14.90;99.90
60234;DHT22;49514;43.538;-5.708;2023-05-19T00:48:44;15.00;99.90
60234;DHT22;49514;43.538;-5.708;2023-05-19T00:51:12;15.00;99.90
60234;DHT22;49514;43.538;-5.708;2023-05-19T00:53:42;14.90;99.90
60234;DHT22;49514;43.538;-5.708;2023-05-19T00:56:14;14.90;99.90
60234;DHT22;49514;43.538;-5.708;2023-05-19T00:58:42;14.90;99.90
60234;DHT22;49514;43.538;-5.708;2023-05-19T01:01:09;14.80;99.90
60234;DHT22;49514;43.538;-5.708;2023-05-19T01:03:38;14.80;99.90
60234;DHT22;49514;43.538;-5.708;2023-05-19T01:06:05;14.80;99.90
60234;DHT22;49514;43.538;-5.708;2023-05-19T01:08:33;14.80;99.90
60234;DHT22;49514;43.538;-5.708;2023-05-19T01:11:01;14.70;99.90
60234;DHT22;49514;43.538;-5.708;2023-05-19T01:13:28;14.70;99.90
60234;DHT22;49514;43.538;-5.708;2023-05-19T01:32:18;14.30;99.90
60234;DHT22;49514;43.538;-5.708;2023-05-19T01:34:48;14.30;99.90
60234;DHT22;49514;43.538;-5.708;2023-05-19T01:37:16;14.20;99.90
60234;DHT22;49514;43.538;-5.708;2023-05-19T01:39:47;14.20;99.90
60234;DHT22;49514;43.538;-5.708;2023-05-19T01:42:14;14.20;99.90
60234;DHT22;49514;43.538;-5.708;2023-05-19T01:44:42;14.10;99.90
60234;DHT22;49514;43.538;-5.708;2023-05-19T01:47:09;14.10;99.90
60234;DHT22;49514;43.538;-5.708;2023-05-19T01:49:36;14.10;99.90
60234;DHT22;49514;43.538;-5.708;2023-05-19T01:52:04;14.00;99.90
60234;DHT22;49514;43.538;-5.708;2023-05-19T01:54:30;14.00;99.90
60234;DHT22;49514;43.538;-5.708;2023-05-19T01:57:19;13.90;99.90
60234;DHT22;49514;43.538;-5.708;2023-05-19T02:02:52;13.80;99.90
60234;DHT22;49514;43.538;-5.708;2023-05-19T02:08:29;13.70;99.90
60234;DHT22;49514;43.538;-5.708;2023-05-19T02:13:55;13.60;99.90
60234;DHT22;49514;43.538;-5.708;2023-05-19T02:16:26;13.50;99.90
60234;DHT22;49514;43.538;-5.708;2023-05-19T02:18:54;13.50;99.90
60234;DHT22;49514;43.538;-5.708;2023-05-19T02:21:21;13.50;99.90
60234;DHT22;49514;43.538;-5.708;2023-05-19T02:23:49;13.40;99.90
60234;DHT22;49514;43.538;-5.708;2023-05-19T02:26:15;13.40;99.90
60234;DHT22;49514;43.538;-5.708;2023-05-19T02:28:42;13.30;99.90
60234;DHT22;49514;43.538;-5.708;2023-05-19T02:31:09;13.30;99.90
60234;DHT22;49514;43.538;-5.708;2023-05-19T02:33:35;13.30;99.90
60234;DHT22;49514;43.538;-5.708;2023-05-19T02:36:03;13.30;99.90
60234;DHT22;49514;43.538;-5.708;2023-05-19T02:38:29;13.30;99.90
60234;DHT22;49514;43.538;-5.708;2023-05-19T02:40:57;13.40;99.90
60234;DHT22;49514;43.538;-5.708;2023-05-19T02:43:24;13.30;99.90
60234;DHT22;49514;43.538;-5.708;2023-05-19T02:45:50;13.40;99.90
60234;DHT22;49514;43.538;-5.708;2023-05-19T02:48:17;13.40;99.90
60234;DHT22;49514;43.538;-5.708;2023-05-19T02:50:43;13.40;99.90
60234;DHT22;49514;43.538;-5.708;2023-05-19T02:53:10;13.40;99.90
60234;DHT22;49514;43.538;-5.708;2023-05-19T02:55:37;13.40;99.90
60234;DHT22;49514;43.538;-5.708;2023-05-19T02:58:04;13.40;99.90
60234;DHT22;49514;43.538;-5.708;2023-05-19T03:00:30;13.30;99.90
60234;DHT22;49514;43.538;-5.708;2023-05-19T03:02:57;13.30;99.90
60234;DHT22;49514;43.538;-5.708;2023-05-19T03:05:28;13.30;99.90
60234;DHT22;49514;43.538;-5.708;2023-05-19T03:07:55;13.20;99.90
60234;DHT22;49514;43.538;-5.708;2023-05-19T03:10:22;13.20;99.90
60234;DHT22;49514;43.538;-5.708;2023-05-19T03:12:49;13.10;99.90
60234;DHT22;49514;43.538;-5.708;2023-05-19T03:15:16;13.10;99.90
60234;DHT22;49514;43.538;-5.708;2023-05-19T03:17:43;13.00;99.90
60234;DHT22;49514;43.538;-5.708;2023-05-19T03:20:10;13.00;99.90
60234;DHT22;49514;43.538;-5.708;2023-05-19T03:22:37;12.90;99.90
60234;DHT22;49514;43.538;-5.708;2023-05-19T03:25:04;12.90;99.90
60234;DHT22;49514;43.538;-5.708;2023-05-19T03:27:32;12.90;99.90
60234;DHT22;49514;43.538;-5.708;2023-05-19T03:29:58;12.90;99.90
60234;DHT22;49514;43.538;-5.708;2023-05-19T03:32:25;12.90;99.90
60234;DHT22;49514;43.538;-5.708;2023-05-19T03:34:52;12.90;99.90
60234;DHT22;49514;43.538;-5.708;2023-05-19T03:37:18;12.90;99.90
60234;DHT22;49514;43.538;-5.708;2023-05-19T03:39:45;12.90;99.90
60234;DHT22;49514;43.538;-5.708;2023-05-19T03:42:12;12.90;99.90
60234;DHT22;49514;43.538;-5.708;2023-05-19T03:44:38;12.90;99.90
60234;DHT22;49514;43.538;-5.708;2023-05-19T03:47:05;12.80;99.90
60234;DHT22;49514;43.538;-5.708;2023-05-19T03:49:52;12.80;99.90
60234;DHT22;49514;43.538;-5.708;2023-05-19T03:52:44;12.80;99.90
60234;DHT22;49514;43.538;-5.708;2023-05-19T03:55:22;12.80;99.90
60234;DHT22;49514;43.538;-5.708;2023-05-19T03:57:49;12.80;99.90
60234;DHT22;49514;43.538;-5.708;2023-05-19T04:00:18;12.80;99.90
60234;DHT22;49514;43.538;-5.708;2023-05-19T04:02:45;12.80;99.90
60234;DHT22;49514;43.538;-5.708;2023-05-19T04:05:13;12.70;99.90
60234;DHT22;49514;43.538;-5.708;2023-05-19T04:07:40;12.70;99.90
60234;DHT22;49514;43.538;-5.708;2023-05-19T04:10:07;12.70;99.90
60234;DHT22;49514;43.538;-5.708;2023-05-19T04:12:33;12.60;99.90
60234;DHT22;49514;43.538;-5.708;2023-05-19T04:15:00;12.60;99.90
60234;DHT22;49514;43.538;-5.708;2023-05-19T04:17:27;12.60;99.90
60234;DHT22;49514;43.538;-5.708;2023-05-19T04:19:54;12.60;99.90
60234;DHT22;49514;43.538;-5.708;2023-05-19T04:22:22;12.50;99.90
60234;DHT22;49514;43.538;-5.708;2023-05-19T04:24:48;12.50;99.90
60234;DHT22;49514;43.538;-5.708;2023-05-19T04:27:17;12.50;99.90
60234;DHT22;49514;43.538;-5.708;2023-05-19T04:29:44;12.60;99.90
60234;DHT22;49514;43.538;-5.708;2023-05-19T04:32:13;12.50;99.90
60234;DHT22;49514;43.538;-5.708;2023-05-19T04:34:43;12.60;99.90
60234;DHT22;49514;43.538;-5.708;2023-05-19T04:37:17;12.60;99.90
60234;DHT22;49514;43.538;-5.708;2023-05-19T04:39:45;12.70;99.90
60234;DHT22;49514;43.538;-5.708;2023-05-19T04:42:13;12.70;99.90
60234;DHT22;49514;43.538;-5.708;2023-05-19T04:44:39;12.80;99.90
60234;DHT22;49514;43.538;-5.708;2023-05-19T04:47:07;12.80;99.90
60234;DHT22;49514;43.538;-5.708;2023-05-19T04:49:34;12.80;99.90
60234;DHT22;49514;43.538;-5.708;2023-05-19T04:52:09;12.90;99.90
60234;DHT22;49514;43.538;-5.708;2023-05-19T04:54:39;12.90;99.90
60234;DHT22;49514;43.538;-5.708;2023-05-19T04:57:07;12.90;99.90
60234;DHT22;49514;43.538;-5.708;2023-05-19T04:59:37;12.90;99.90
60234;DHT22;49514;43.538;-5.708;2023-05-19T05:02:07;12.90;99.90
60234;DHT22;49514;43.538;-5.708;2023-05-19T05:04:34;13.00;99.90
60234;DHT22;49514;43.538;-5.708;2023-05-19T05:07:01;13.00;99.90
60234;DHT22;49514;43.538;-5.708;2023-05-19T05:09:28;13.10;99.90
60234;DHT22;49514;43.538;-5.708;2023-05-19T05:11:58;13.20;99.90
60234;DHT22;49514;43.538;-5.708;2023-05-19T05:14:25;13.20;99.90
60234;DHT22;49514;43.538;-5.708;2023-05-19T05:16:54;13.30;99.90
60234;DHT22;49514;43.538;-5.708;2023-05-19T05:19:23;13.40;99.90
60234;DHT22;49514;43.538;-5.708;2023-05-19T05:21:50;13.40;99.90
60234;DHT22;49514;43.538;-5.708;2023-05-19T05:24:17;13.50;99.90
60234;DHT22;49514;43.538;-5.708;2023-05-19T05:26:49;13.40;99.90
60234;DHT22;49514;43.538;-5.708;2023-05-19T05:29:16;13.50;99.90
60234;DHT22;49514;43.538;-5.708;2023-05-19T05:31:43;13.50;99.90
60234;DHT22;49514;43.538;-5.708;2023-05-19T05:34:10;13.40;99.90
60234;DHT22;49514;43.538;-5.708;2023-05-19T05:36:37;13.50;99.90
60234;DHT22;49514;43.538;-5.708;2023-05-19T05:39:04;13.40;99.90
60234;DHT22;49514;43.538;-5.708;2023-05-19T05:41:31;13.50;99.90
60234;DHT22;49514;43.538;-5.708;2023-05-19T05:44:03;13.50;99.90
60234;DHT22;49514;43.538;-5.708;2023-05-19T05:46:31;13.50;99.90
60234;DHT22;49514;43.538;-5.708;2023-05-19T05:48:57;13.50;99.90
60234;DHT22;49514;43.538;-5.708;2023-05-19T05:51:24;13.60;99.90
60234;DHT22;49514;43.538;-5.708;2023-05-19T05:53:55;13.60;99.90
60234;DHT22;49514;43.538;-5.708;2023-05-19T05:56:31;13.70;99.90
60234;DHT22;49514;43.538;-5.708;2023-05-19T05:59:00;13.70;99.90
60234;DHT22;49514;43.538;-5.708;2023-05-19T06:01:27;13.80;99.90
60234;DHT22;49514;43.538;-5.708;2023-05-19T06:03:55;13.90;99.90
60234;DHT22;49514;43.538;-5.708;2023-05-19T06:06:23;14.00;99.90
60234;DHT22;49514;43.538;-5.708;2023-05-19T06:08:52;14.00;99.90
60234;DHT22;49514;43.538;-5.708;2023-05-19T06:11:19;14.00;99.90
60234;DHT22;49514;43.538;-5.708;2023-05-19T06:13:47;14.00;99.90
60234;DHT22;49514;43.538;-5.708;2023-05-19T06:16:23;14.10;99.90
60234;DHT22;49514;43.538;-5.708;2023-05-19T06:18:50;14.10;99.90
60234;DHT22;49514;43.538;-5.708;2023-05-19T06:21:17;14.20;99.90
60234;DHT22;49514;43.538;-5.708;2023-05-19T06:23:43;14.20;99.90
60234;DHT22;49514;43.538;-5.708;2023-05-19T06:26:11;14.20;99.90
60234;DHT22;49514;43.538;-5.708;2023-05-19T06:28:38;14.20;99.90
60234;DHT22;49514;43.538;-5.708;2023-05-19T06:31:05;14.30;99.90
60234;DHT22;49514;43.538;-5.708;2023-05-19T06:33:46;14.30;99.90
60234;DHT22;49514;43.538;-5.708;2023-05-19T06:36:12;14.50;99.90
60234;DHT22;49514;43.538;-5.708;2023-05-19T06:38:41;14.50;99.90
60234;DHT22;49514;43.538;-5.708;2023-05-19T06:41:08;14.50;99.90
60234;DHT22;49514;43.538;-5.708;2023-05-19T06:43:35;14.60;99.90
60234;DHT22;49514;43.538;-5.708;2023-05-19T06:46:03;14.60;99.90
60234;DHT22;49514;43.538;-5.708;2023-05-19T06:48:32;14.70;99.90
60234;DHT22;49514;43.538;-5.708;2023-05-19T06:50:59;14.80;99.90
60234;DHT22;49514;43.538;-5.708;2023-05-19T06:53:26;14.80;99.90
60234;DHT22;49514;43.538;-5.708;2023-05-19T06:55:54;14.80;99.90
60234;DHT22;49514;43.538;-5.708;2023-05-19T06:58:22;14.80;99.90
60234;DHT22;49514;43.538;-5.708;2023-05-19T07:00:50;14.80;99.90
60234;DHT22;49514;43.538;-5.708;2023-05-19T07:03:17;14.80;99.90
60234;DHT22;49514;43.538;-5.708;2023-05-19T07:05:44;14.80;99.90
60234;DHT22;49514;43.538;-5.708;2023-05-19T07:08:14;14.70;99.90
60234;DHT22;49514;43.538;-5.708;2023-05-19T07:10:41;14.80;99.90
60234;DHT22;49514;43.538;-5.708;2023-05-19T07:13:12;14.80;99.90
60234;DHT22;49514;43.538;-5.708;2023-05-19T07:15:38;14.80;99.90
60234;DHT22;49514;43.538;-5.708;2023-05-19T07:18:05;14.70;99.90
60234;DHT22;49514;43.538;-5.708;2023-05-19T07:20:32;14.70;99.90
60234;DHT22;49514;43.538;-5.708;2023-05-19T07:22:59;14.70;99.90
60234;DHT22;49514;43.538;-5.708;2023-05-19T07:25:27;14.80;99.90
60234;DHT22;49514;43.538;-5.708;2023-05-19T07:27:56;14.80;99.90
60234;DHT22;49514;43.538;-5.708;2023-05-19T07:30:23;14.80;99.90
60234;DHT22;49514;43.538;-5.708;2023-05-19T07:32:49;14.80;99.90
60234;DHT22;49514;43.538;-5.708;2023-05-19T07:35:16;14.90;99.90
60234;DHT22;49514;43.538;-5.708;2023-05-19T07:37:43;15.00;99.90
60234;DHT22;49514;43.538;-5.708;2023-05-19T07:40:10;15.10;99.90
60234;DHT22;49514;43.538;-5.708;2023-05-19T07:42:36;15.00;99.90
60234;DHT22;49514;43.538;-5.708;2023-05-19T07:45:03;14.90;99.90
60234;DHT22;49514;43.538;-5.708;2023-05-19T07:47:30;14.90;99.90
60234;DHT22;49514;43.538;-5.708;2023-05-19T07:49:57;14.90;99.90
60234;DHT22;49514;43.538;-5.708;2023-05-19T07:52:23;14.90;99.90
60234;DHT22;49514;43.538;-5.708;2023-05-19T07:54:50;14.90;99.90
60234;DHT22;49514;43.538;-5.708;2023-05-19T07:57:17;14.90;99.90
60234;DHT22;49514;43.538;-5.708;2023-05-19T07:59:44;15.00;99.90
60234;DHT22;49514;43.538;-5.708;2023-05-19T08:02:11;15.00;99.90
60234;DHT22;49514;43.538;-5.708;2023-05-19T08:04:37;15.00;99.90
60234;DHT22;49514;43.538;-5.708;2023-05-19T08:07:04;15.00;99.90
60234;DHT22;49514;43.538;-5.708;2023-05-19T08:09:31;15.00;99.90
60234;DHT22;49514;43.538;-5.708;2023-05-19T08:11:58;15.00;99.90
60234;DHT22;49514;43.538;-5.708;2023-05-19T08:14:24;15.00;99.90
60234;DHT22;49514;43.538;-5.708;2023-05-19T08:16:52;15.10;99.90
60234;DHT22;49514;43.538;-5.708;2023-05-19T08:19:18;15.10;99.90
60234;DHT22;49514;43.538;-5.708;2023-05-19T08:21:45;15.10;99.90
60234;DHT22;49514;43.538;-5.708;2023-05-19T08:24:14;15.10;99.90
60234;DHT22;49514;43.538;-5.708;2023-05-19T08:26:42;15.20;99.90
60234;DHT22;49514;43.538;-5.708;2023-05-19T08:29:09;15.40;99.90
60234;DHT22;49514;43.538;-5.708;2023-05-19T08:31:35;15.50;99.90
60234;DHT22;49514;43.538;-5.708;2023-05-19T08:34:02;15.70;99.90
60234;DHT22;49514;43.538;-5.708;2023-05-19T08:38:59;16.20;99.90
60234;DHT22;49514;43.538;-5.708;2023-05-19T08:41:25;16.30;99.90
60234;DHT22;49514;43.538;-5.708;2023-05-19T08:43:52;16.50;99.90
60234;DHT22;49514;43.538;-5.708;2023-05-19T08:46:20;16.50;99.90
60234;DHT22;49514;43.538;-5.708;2023-05-19T08:48:53;16.40;99.90
60234;DHT22;49514;43.538;-5.708;2023-05-19T08:51:31;16.30;99.90
60234;DHT22;49514;43.538;-5.708;2023-05-19T08:54:17;16.20;99.90
60234;DHT22;49514;43.538;-5.708;2023-05-19T08:56:46;16.10;99.90
60234;DHT22;49514;43.538;-5.708;2023-05-19T08:59:13;16.00;99.90
60234;DHT22;49514;43.538;-5.708;2023-05-19T09:01:44;16.00;99.90
60234;DHT22;49514;43.538;-5.708;2023-05-19T09:04:14;15.80;99.90
60234;DHT22;49514;43.538;-5.708;2023-05-19T09:06:42;15.70;99.90
60234;DHT22;49514;43.538;-5.708;2023-05-19T09:09:10;15.60;99.90
60234;DHT22;49514;43.538;-5.708;2023-05-19T09:11:37;15.50;99.90
60234;DHT22;49514;43.538;-5.708;2023-05-19T09:14:04;15.50;99.90
60234;DHT22;49514;43.538;-5.708;2023-05-19T09:16:31;15.50;99.90
60234;DHT22;49514;43.538;-5.708;2023-05-19T09:18:59;15.40;99.90
60234;DHT22;49514;43.538;-5.708;2023-05-19T09:21:30;15.50;99.90
60234;DHT22;49514;43.538;-5.708;2023-05-19T09:24:06;15.50;99.90
60234;DHT22;49514;43.538;-5.708;2023-05-19T09:26:38;15.50;99.90
60234;DHT22;49514;43.538;-5.708;2023-05-19T09:29:15;15.50;99.90
60234;DHT22;49514;43.538;-5.708;2023-05-19T09:31:55;15.60;99.90
60234;DHT22;49514;43.538;-5.708;2023-05-19T09:34:26;15.60;99.90
60234;DHT22;49514;43.538;-5.708;2023-05-19T09:36:53;15.60;99.90
60234;DHT22;49514;43.538;-5.708;2023-05-19T09:39:22;15.80;99.90
60234;DHT22;49514;43.538;-5.708;2023-05-19T09:41:53;15.80;99.90
60234;DHT22;49514;43.538;-5.708;2023-05-19T09:44:21;15.90;99.90
60234;DHT22;49514;43.538;-5.708;2023-05-19T09:46:58;15.90;99.90
60234;DHT22;49514;43.538;-5.708;2023-05-19T09:49:27;16.00;99.90
60234;DHT22;49514;43.538;-5.708;2023-05-19T09:52:00;16.00;99.90
60234;DHT22;49514;43.538;-5.708;2023-05-19T09:54:29;16.00;99.90
60234;DHT22;49514;43.538;-5.708;2023-05-19T09:59:25;16.20;99.90
60234;DHT22;49514;43.538;-5.708;2023-05-19T10:01:56;16.30;99.90
60234;DHT22;49514;43.538;-5.708;2023-05-19T10:04:27;16.60;99.90
60234;DHT22;49514;43.538;-5.708;2023-05-19T10:06:55;16.90;99.90
60234;DHT22;49514;43.538;-5.708;2023-05-19T10:09:26;17.20;99.90
60234;DHT22;49514;43.538;-5.708;2023-05-19T10:11:55;17.50;99.90
60234;DHT22;49514;43.538;-5.708;2023-05-19T10:14:26;17.90;99.90
60234;DHT22;49514;43.538;-5.708;2023-05-19T10:16:55;18.40;99.90
60234;DHT22;49514;43.538;-5.708;2023-05-19T10:19:26;18.60;99.90
60234;DHT22;49514;43.538;-5.708;2023-05-19T10:21:53;18.60;99.90
60234;DHT22;49514;43.538;-5.708;2023-05-19T10:24:20;18.60;99.90
60234;DHT22;49514;43.538;-5.708;2023-05-19T10:26:52;18.70;99.90
60234;DHT22;49514;43.538;-5.708;2023-05-19T10:29:31;18.80;99.90
60234;DHT22;49514;43.538;-5.708;2023-05-19T10:32:03;18.90;99.90
60234;DHT22;49514;43.538;-5.708;2023-05-19T10:41:27;19.20;99.90
60234;DHT22;49514;43.538;-5.708;2023-05-19T10:43:51;19.10;99.90
60234;DHT22;49514;43.538;-5.708;2023-05-19T10:46:25;19.00;99.90
60234;DHT22;49514;43.538;-5.708;2023-05-19T10:48:53;18.80;99.90
60234;DHT22;49514;43.538;-5.708;2023-05-19T10:51:19;18.70;99.90
60234;DHT22;49514;43.538;-5.708;2023-05-19T10:53:46;18.50;99.90
60234;DHT22;49514;43.538;-5.708;2023-05-19T10:56:31;18.40;99.90
60234;DHT22;49514;43.538;-5.708;2023-05-19T10:59:00;18.60;99.90
60234;DHT22;49514;43.538;-5.708;2023-05-19T11:01:34;18.90;99.90
60234;DHT22;49514;43.538;-5.708;2023-05-19T11:04:08;19.50;99.90
60234;DHT22;49514;43.538;-5.708;2023-05-19T11:09:19;20.60;99.90
60234;DHT22;49514;43.538;-5.708;2023-05-19T11:11:50;21.50;99.90
60234;DHT22;49514;43.538;-5.708;2023-05-19T11:14:22;21.40;99.90
60234;DHT22;49514;43.538;-5.708;2023-05-19T11:16:50;21.70;99.90
60234;DHT22;49514;43.538;-5.708;2023-05-19T11:21:54;22.60;99.90
60234;DHT22;49514;43.538;-5.708;2023-05-19T11:24:45;22.90;99.90
60234;DHT22;49514;43.538;-5.708;2023-05-19T11:29:47;23.30;99.90
60234;DHT22;49514;43.538;-5.708;2023-05-19T11:32:14;23.60;99.90
60234;DHT22;49514;43.538;-5.708;2023-05-19T11:34:42;23.40;99.90
60234;DHT22;49514;43.538;-5.708;2023-05-19T11:37:10;23.10;99.90
60234;DHT22;49514;43.538;-5.708;2023-05-19T11:39:38;22.70;99.90
60234;DHT22;49514;43.538;-5.708;2023-05-19T11:42:07;22.20;99.90
60234;DHT22;49514;43.538;-5.708;2023-05-19T11:44:34;21.90;99.90
60234;DHT22;49514;43.538;-5.708;2023-05-19T11:47:00;21.70;99.90
60234;DHT22;49514;43.538;-5.708;2023-05-19T11:49:28;21.80;99.90
60234;DHT22;49514;43.538;-5.708;2023-05-19T11:51:55;22.00;99.90
60234;DHT22;49514;43.538;-5.708;2023-05-19T11:54:32;22.20;99.90
60234;DHT22;49514;43.538;-5.708;2023-05-19T11:57:00;22.30;99.90
60234;DHT22;49514;43.538;-5.708;2023-05-19T11:59:36;22.50;99.90
60234;DHT22;49514;43.538;-5.708;2023-05-19T12:02:21;22.40;99.90
60234;DHT22;49514;43.538;-5.708;2023-05-19T12:04:50;22.50;99.90
60234;DHT22;49514;43.538;-5.708;2023-05-19T12:07:19;22.30;99.90
60234;DHT22;49514;43.538;-5.708;2023-05-19T12:09:46;22.20;99.90
60234;DHT22;49514;43.538;-5.708;2023-05-19T12:12:15;22.10;99.90
60234;DHT22;49514;43.538;-5.708;2023-05-19T12:14:42;22.20;99.90
60234;DHT22;49514;43.538;-5.708;2023-05-19T12:17:13;22.60;99.90
60234;DHT22;49514;43.538;-5.708;2023-05-19T12:19:43;22.80;99.90
60234;DHT22;49514;43.538;-5.708;2023-05-19T12:22:10;22.60;99.90
60234;DHT22;49514;43.538;-5.708;2023-05-19T12:24:37;22.60;99.90
60234;DHT22;49514;43.538;-5.708;2023-05-19T12:27:24;22.90;99.90
60234;DHT22;49514;43.538;-5.708;2023-05-19T12:29:55;23.10;99.90
60234;DHT22;49514;43.538;-5.708;2023-05-19T12:32:26;23.40;99.90
60234;DHT22;49514;43.538;-5.708;2023-05-19T12:34:57;23.90;99.90
60234;DHT22;49514;43.538;-5.708;2023-05-19T12:37:27;24.10;99.90
60234;DHT22;49514;43.538;-5.708;2023-05-19T12:39:56;24.30;99.90
60234;DHT22;49514;43.538;-5.708;2023-05-19T12:42:24;24.40;99.90
60234;DHT22;49514;43.538;-5.708;2023-05-19T12:44:53;24.60;99.90
60234;DHT22;49514;43.538;-5.708;2023-05-19T12:47:20;24.70;99.90
60234;DHT22;49514;43.538;-5.708;2023-05-19T12:50:06;24.80;99.90
60234;DHT22;49514;43.538;-5.708;2023-05-19T12:52:48;24.90;99.90
60234;DHT22;49514;43.538;-5.708;2023-05-19T12:55:18;25.10;99.90
60234;DHT22;49514;43.538;-5.708;2023-05-19T12:57:50;25.80;98.90
60234;DHT22;49514;43.538;-5.708;2023-05-19T13:00:20;26.10;98.00
60234;DHT22;49514;43.538;-5.708;2023-05-19T13:03:04;26.80;96.60
60234;DHT22;49514;43.538;-5.708;2023-05-19T13:05:37;26.70;94.30
60234;DHT22;49514;43.538;-5.708;2023-05-19T13:08:17;27.10;94.70
60234;DHT22;49514;43.538;-5.708;2023-05-19T13:10:46;28.50;93.20
60234;DHT22;49514;43.538;-5.708;2023-05-19T13:13:32;28.50;91.00
60234;DHT22;49514;43.538;-5.708;2023-05-19T13:15:59;30.40;86.70
60234;DHT22;49514;43.538;-5.708;2023-05-19T13:18:26;31.20;82.70
60234;DHT22;49514;43.538;-5.708;2023-05-19T13:20:53;31.50;83.40
60234;DHT22;49514;43.538;-5.708;2023-05-19T13:23:20;33.30;77.90
60234;DHT22;49514;43.538;-5.708;2023-05-19T13:25:48;34.80;73.50
60234;DHT22;49514;43.538;-5.708;2023-05-19T13:28:18;37.50;69.30
60234;DHT22;49514;43.538;-5.708;2023-05-19T13:30:44;39.10;64.40
60234;DHT22;49514;43.538;-5.708;2023-05-19T13:33:11;40.30;60.60
60234;DHT22;49514;43.538;-5.708;2023-05-19T13:35:39;40.80;59.50
60234;DHT22;49514;43.538;-5.708;2023-05-19T13:38:06;41.80;58.70
60234;DHT22;49514;43.538;-5.708;2023-05-19T13:40:35;42.10;58.20
60234;DHT22;49514;43.538;-5.708;2023-05-19T13:43:04;42.60;56.00
60234;DHT22;49514;43.538;-5.708;2023-05-19T13:45:31;43.10;55.50
60234;DHT22;49514;43.538;-5.708;2023-05-19T13:47:57;43.90;56.00
60234;DHT22;49514;43.538;-5.708;2023-05-19T13:50:24;44.40;53.80
60234;DHT22;49514;43.538;-5.708;2023-05-19T13:52:51;45.30;53.30
60234;DHT22;49514;43.538;-5.708;2023-05-19T13:55:19;45.80;51.00
60234;DHT22;49514;43.538;-5.708;2023-05-19T13:57:45;44.70;50.80
60234;DHT22;49514;43.538;-5.708;2023-05-19T14:00:13;46.10;50.50
60234;DHT22;49514;43.538;-5.708;2023-05-19T14:02:39;46.70;51.70
60234;DHT22;49514;43.538;-5.708;2023-05-19T14:05:06;46.70;50.00
60234;DHT22;49514;43.538;-5.708;2023-05-19T14:07:34;47.20;50.50
60234;DHT22;49514;43.538;-5.708;2023-05-19T14:10:01;48.10;49.50
60234;DHT22;49514;43.538;-5.708;2023-05-19T14:12:29;48.70;48.10
60234;DHT22;49514;43.538;-5.708;2023-05-19T14:14:56;49.30;48.50
60234;DHT22;49514;43.538;-5.708;2023-05-19T14:17:23;49.50;46.50
60234;DHT22;49514;43.538;-5.708;2023-05-19T14:19:49;49.40;47.60
60234;DHT22;49514;43.538;-5.708;2023-05-19T14:22:16;48.00;46.30
60234;DHT22;49514;43.538;-5.708;2023-05-19T14:24:43;47.00;46.00
60234;DHT22;49514;43.538;-5.708;2023-05-19T14:27:11;47.40;47.00
60234;DHT22;49514;43.538;-5.708;2023-05-19T14:29:38;46.50;47.40
60234;DHT22;49514;43.538;-5.708;2023-05-19T14:32:05;47.20;47.10
60234;DHT22;49514;43.538;-5.708;2023-05-19T14:37:00;49.20;44.40
60234;DHT22;49514;43.538;-5.708;2023-05-19T14:39:28;50.70;46.30
60234;DHT22;49514;43.538;-5.708;2023-05-19T14:41:57;51.80;44.30
60234;DHT22;49514;43.538;-5.708;2023-05-19T14:44:29;51.60;45.20
60234;DHT22;49514;43.538;-5.708;2023-05-19T14:46:58;51.00;43.30
60234;DHT22;49514;43.538;-5.708;2023-05-19T14:49:25;51.50;43.90
60234;DHT22;49514;43.538;-5.708;2023-05-19T14:51:52;51.20;43.60
60234;DHT22;49514;43.538;-5.708;2023-05-19T14:54:19;51.40;43.80
60234;DHT22;49514;43.538;-5.708;2023-05-19T14:56:46;51.30;42.60
60234;DHT22;49514;43.538;-5.708;2023-05-19T14:59:12;51.90;43.10
60234;DHT22;49514;43.538;-5.708;2023-05-19T15:01:39;52.40;42.40
60234;DHT22;49514;43.538;-5.708;2023-05-19T15:04:06;49.50;41.80
60234;DHT22;49514;43.538;-5.708;2023-05-19T15:06:33;48.60;43.50
60234;DHT22;49514;43.538;-5.708;2023-05-19T15:09:00;49.30;43.60
60234;DHT22;49514;43.538;-5.708;2023-05-19T15:11:27;47.70;42.50
60234;DHT22;49514;43.538;-5.708;2023-05-19T15:13:54;45.40;43.30
60234;DHT22;49514;43.538;-5.708;2023-05-19T15:16:21;42.40;44.00
60234;DHT22;49514;43.538;-5.708;2023-05-19T15:18:48;40.30;45.00
60234;DHT22;49514;43.538;-5.708;2023-05-19T15:21:16;40.10;46.70
60234;DHT22;49514;43.538;-5.708;2023-05-19T15:23:43;40.90;46.10
60234;DHT22;49514;43.538;-5.708;2023-05-19T15:26:10;42.00;46.30
60234;DHT22;49514;43.538;-5.708;2023-05-19T15:28:36;40.80;45.70
60234;DHT22;49514;43.538;-5.708;2023-05-19T15:31:06;39.10;46.30
60234;DHT22;49514;43.538;-5.708;2023-05-19T15:33:32;38.60;46.80
60234;DHT22;49514;43.538;-5.708;2023-05-19T15:36:02;37.20;47.60
60234;DHT22;49514;43.538;-5.708;2023-05-19T15:38:28;35.90;49.10
60234;DHT22;49514;43.538;-5.708;2023-05-19T15:40:55;35.90;50.10
60234;DHT22;49514;43.538;-5.708;2023-05-19T15:43:22;36.40;49.10
60234;DHT22;49514;43.538;-5.708;2023-05-19T15:45:49;37.70;49.60
60234;DHT22;49514;43.538;-5.708;2023-05-19T15:48:20;38.30;48.20
60234;DHT22;49514;43.538;-5.708;2023-05-19T15:50:47;37.30;48.30
60234;DHT22;49514;43.538;-5.708;2023-05-19T15:53:14;36.10;48.60
60234;DHT22;49514;43.538;-5.708;2023-05-19T15:55:41;35.20;50.40
60234;DHT22;49514;43.538;-5.708;2023-05-19T15:58:08;34.20;50.00
60234;DHT22;49514;43.538;-5.708;2023-05-19T16:00:36;33.30;51.40
60234;DHT22;49514;43.538;-5.708;2023-05-19T16:03:02;33.90;51.90
60234;DHT22;49514;43.538;-5.708;2023-05-19T16:05:29;34.20;51.40
60234;DHT22;49514;43.538;-5.708;2023-05-19T16:07:56;33.40;51.30
60234;DHT22;49514;43.538;-5.708;2023-05-19T16:10:22;33.10;52.90
60234;DHT22;49514;43.538;-5.708;2023-05-19T16:12:49;34.40;52.20